createdAt,value
2024-02-13T00:01:10.360Z,1.93
2024-02-13T00:03:37.606Z,1.88
2024-02-13T00:06:04.846Z,2.10
2024-02-13T00:08:40.971Z,2.08
2024-02-13T00:11:14.420Z,1.98
2024-02-13T00:13:41.917Z,2.14
2024-02-13T00:16:08.845Z,2.09
2024-02-13T00:18:35.696Z,2.31
2024-02-13T00:21:02.842Z,2.17
2024-02-13T00:23:30.529Z,1.91
2024-02-13T00:25:57.625Z,1.75
2024-02-13T00:28:24.463Z,1.98
2024-02-13T00:30:52.746Z,1.85
2024-02-13T00:33:39.667Z,1.89
2024-02-13T00:36:14.011Z,1.74
2024-02-13T00:38:44.045Z,1.68
2024-02-13T00:41:10.998Z,1.64
2024-02-13T00:43:37.882Z,1.57
2024-02-13T00:46:04.676Z,1.56
2024-02-13T00:48:32.931Z,1.64
2024-02-13T00:50:59.945Z,1.66
2024-02-13T00:53:26.912Z,1.69
2024-02-13T00:55:54.227Z,1.58
2024-02-13T00:58:21.043Z,1.54
2024-02-13T01:00:47.891Z,1.51
2024-02-13T01:03:15.128Z,1.56
2024-02-13T01:05:43.958Z,1.61
2024-02-13T01:08:14.196Z,1.62
2024-02-13T01:10:41.718Z,1.52
2024-02-13T01:13:08.554Z,1.72
2024-02-13T01:15:35.556Z,1.47
2024-02-13T01:18:02.481Z,1.60
2024-02-13T01:20:29.682Z,1.60
2024-02-13T01:22:56.670Z,1.54
2024-02-13T01:25:26.316Z,1.57
2024-02-13T01:27:53.340Z,1.57
2024-02-13T01:30:20.170Z,1.65
2024-02-13T01:32:48.000Z,1.70
2024-02-13T01:35:17.407Z,1.58
2024-02-13T01:37:45.035Z,1.58
2024-02-13T01:40:12.571Z,1.59
2024-02-13T01:42:39.432Z,1.52
2024-02-13T01:45:15.107Z,1.48
2024-02-13T01:47:55.141Z,1.57
2024-02-13T01:50:22.112Z,1.77
2024-02-13T01:52:50.930Z,1.71
2024-02-13T01:55:25.028Z,1.65
2024-02-13T01:57:56.052Z,1.51
2024-02-13T02:00:28.910Z,1.48
2024-02-13T02:02:55.952Z,1.70
2024-02-13T02:05:22.916Z,1.60
2024-02-13T02:08:08.266Z,1.64
2024-02-13T02:10:35.115Z,1.69
2024-02-13T02:13:02.427Z,1.69
2024-02-13T02:15:32.469Z,1.56
2024-02-13T02:17:59.823Z,1.62
2024-02-13T02:20:26.780Z,1.52
2024-02-13T02:22:53.651Z,1.49
2024-02-13T02:25:24.791Z,1.55
2024-02-13T02:28:11.594Z,1.76
2024-02-13T02:30:49.345Z,1.52
2024-02-13T02:33:16.447Z,1.57
2024-02-13T02:35:43.901Z,1.56
2024-02-13T02:38:11.309Z,1.55
2024-02-13T02:40:41.692Z,1.44
2024-02-13T02:43:10.801Z,1.69
2024-02-13T02:45:37.653Z,1.57
2024-02-13T02:48:04.687Z,1.53
2024-02-13T02:50:31.594Z,1.56
2024-02-13T02:52:59.023Z,1.76
2024-02-13T02:55:26.354Z,1.52
2024-02-13T02:57:53.961Z,1.66
2024-02-13T03:00:22.102Z,1.63
2024-02-13T03:02:57.066Z,1.74
2024-02-13T03:05:24.172Z,1.62
2024-02-13T03:07:51.055Z,1.58
2024-02-13T03:10:17.899Z,1.63
2024-02-13T03:12:45.313Z,1.53
2024-02-13T03:15:13.623Z,1.47
2024-02-13T03:17:41.005Z,1.58
2024-02-13T03:20:12.402Z,1.49
2024-02-13T03:22:53.438Z,1.61
2024-02-13T03:25:20.266Z,1.47
2024-02-13T03:28:06.614Z,1.50
2024-02-13T03:30:34.414Z,1.58
2024-02-13T03:33:02.470Z,1.92
2024-02-13T03:35:31.459Z,1.75
2024-02-13T03:37:58.936Z,1.64
2024-02-13T03:40:26.228Z,1.54
2024-02-13T03:42:53.036Z,1.76
2024-02-13T03:45:20.962Z,1.77
2024-02-13T03:48:00.923Z,1.78
2024-02-13T03:50:28.031Z,1.79
2024-02-13T03:52:55.012Z,1.87
2024-02-13T03:55:21.836Z,1.87
2024-02-13T03:57:48.684Z,1.95
2024-02-13T04:00:16.156Z,1.97
2024-02-13T04:02:45.864Z,1.76
2024-02-13T04:05:14.089Z,1.89
2024-02-13T04:07:41.982Z,2.01
2024-02-13T04:10:09.171Z,2.26
2024-02-13T04:12:49.064Z,2.10
2024-02-13T04:15:15.938Z,2.30
2024-02-13T04:17:52.064Z,2.35
2024-02-13T04:20:19.156Z,2.21
2024-02-13T04:22:46.326Z,2.32
2024-02-13T04:25:13.183Z,2.12
2024-02-13T04:27:40.212Z,2.33
2024-02-13T04:30:10.025Z,2.12
2024-02-13T04:32:39.836Z,2.13
2024-02-13T04:35:07.244Z,1.97
2024-02-13T04:37:34.647Z,2.35
2024-02-13T04:40:01.501Z,2.40
2024-02-13T04:42:34.843Z,2.35
2024-02-13T04:45:04.943Z,2.43
2024-02-13T04:47:35.000Z,2.74
2024-02-13T04:50:07.742Z,2.81
2024-02-13T04:52:35.211Z,2.62
2024-02-13T04:55:02.009Z,3.10
2024-02-13T04:57:31.513Z,3.95
2024-02-13T04:59:58.518Z,5.00
2024-02-13T05:02:30.417Z,7.25
2024-02-13T05:05:15.871Z,11.13
2024-02-13T05:07:45.905Z,6.44
2024-02-13T05:10:13.455Z,6.82
2024-02-13T05:13:00.216Z,8.32
2024-02-13T05:15:27.057Z,6.10
2024-02-13T05:17:54.097Z,3.90
2024-02-13T05:20:21.008Z,2.51
2024-02-13T05:22:48.307Z,2.40
2024-02-13T05:25:15.168Z,2.23
2024-02-13T05:27:41.982Z,2.41
2024-02-13T05:30:11.142Z,2.29
2024-02-13T05:32:37.976Z,2.13
2024-02-13T05:35:05.867Z,2.20
2024-02-13T05:37:33.681Z,2.26
2024-02-13T05:40:00.594Z,2.26
2024-02-13T05:42:27.822Z,2.31
2024-02-13T05:44:54.944Z,2.61
2024-02-13T05:47:24.473Z,2.48
2024-02-13T05:49:51.368Z,2.46
2024-02-13T05:52:19.260Z,2.41
2024-02-13T05:54:46.329Z,2.32
2024-02-13T05:57:13.332Z,2.23
2024-02-13T05:59:40.472Z,2.10
2024-02-13T06:02:07.330Z,1.93
2024-02-13T06:04:34.134Z,2.12
2024-02-13T06:07:01.238Z,2.13
2024-02-13T06:09:28.869Z,2.03
2024-02-13T06:11:56.382Z,1.99
2024-02-13T06:14:26.095Z,1.90
2024-02-13T06:16:52.884Z,2.16
2024-02-13T06:19:20.559Z,2.07
2024-02-13T06:21:47.537Z,2.05
2024-02-13T06:24:14.406Z,2.04
2024-02-13T06:26:41.348Z,2.17
2024-02-13T06:29:09.479Z,2.34
2024-02-13T06:31:36.415Z,2.30
2024-02-13T06:34:03.381Z,2.26
2024-02-13T06:36:30.448Z,1.97
2024-02-13T06:38:57.877Z,2.00
2024-02-13T06:41:24.847Z,2.10
2024-02-13T06:43:51.800Z,2.18
2024-02-13T06:46:18.683Z,2.38
2024-02-13T06:48:47.145Z,2.31
2024-02-13T06:51:14.152Z,2.43
2024-02-13T06:53:41.242Z,2.48
2024-02-13T06:56:08.306Z,2.30
2024-02-13T06:58:35.170Z,2.28
2024-02-13T07:01:03.982Z,2.32
2024-02-13T07:03:32.654Z,2.40
2024-02-13T07:05:59.937Z,2.73
2024-02-13T07:08:26.920Z,2.86
2024-02-13T07:10:54.930Z,2.80
2024-02-13T07:13:29.386Z,2.90
2024-02-13T07:15:56.234Z,3.55
2024-02-13T07:18:26.005Z,3.53
2024-02-13T07:20:53.052Z,3.65
2024-02-13T07:23:20.093Z,4.05
2024-02-13T07:25:46.990Z,3.76
2024-02-13T07:28:15.776Z,3.34
2024-02-13T07:30:44.740Z,3.73
2024-02-13T07:33:13.464Z,3.49
2024-02-13T07:35:40.530Z,3.43
2024-02-13T07:38:09.080Z,3.83
2024-02-13T07:40:36.096Z,4.23
2024-02-13T07:43:02.981Z,4.76
2024-02-13T07:45:30.062Z,3.76
2024-02-13T07:48:05.952Z,2.74
2024-02-13T07:50:33.120Z,2.53
2024-02-13T07:53:00.396Z,2.99
2024-02-13T07:55:27.671Z,3.24
2024-02-13T07:57:55.819Z,3.14
2024-02-13T08:00:24.993Z,3.28
2024-02-13T08:02:52.809Z,3.08
2024-02-13T08:05:19.714Z,2.90
2024-02-13T08:07:46.556Z,2.99
2024-02-13T08:10:14.473Z,3.64
2024-02-13T08:12:41.532Z,3.36
2024-02-13T08:15:09.253Z,3.84
2024-02-13T08:17:36.263Z,4.20
2024-02-13T08:20:05.417Z,4.40
2024-02-13T08:22:32.997Z,4.27
2024-02-13T08:25:02.230Z,4.06
2024-02-13T08:27:31.616Z,4.17
2024-02-13T08:29:58.455Z,3.99
2024-02-13T08:32:28.123Z,4.25
2024-02-13T08:34:57.306Z,4.75
2024-02-13T08:37:26.777Z,4.20
2024-02-13T08:39:54.225Z,3.87
2024-02-13T08:42:21.234Z,3.64
2024-02-13T08:44:48.209Z,3.20
2024-02-13T08:47:15.313Z,3.53
2024-02-13T08:49:42.431Z,3.77
2024-02-13T08:52:09.450Z,3.97
2024-02-13T08:54:36.338Z,3.99
2024-02-13T08:57:03.453Z,3.78
2024-02-13T08:59:32.471Z,3.79
2024-02-13T09:01:59.390Z,3.90
2024-02-13T09:04:49.450Z,3.77
2024-02-13T09:07:35.198Z,4.04
2024-02-13T09:10:14.221Z,4.19
2024-02-13T09:12:41.647Z,3.88
2024-02-13T09:15:12.624Z,4.04
2024-02-13T09:17:41.950Z,4.10
2024-02-13T09:20:14.710Z,3.95
2024-02-13T09:22:45.881Z,4.28
2024-02-13T09:25:15.964Z,4.22
2024-02-13T09:27:44.640Z,4.20
2024-02-13T09:30:14.404Z,3.98
2024-02-13T09:32:41.351Z,3.64
2024-02-13T09:35:08.815Z,3.43
2024-02-13T09:37:51.020Z,3.70
2024-02-13T09:40:19.217Z,2.80
2024-02-13T09:42:47.795Z,2.77
2024-02-13T09:45:14.994Z,2.89
2024-02-13T09:47:42.758Z,2.74
2024-02-13T09:50:15.271Z,2.32
2024-02-13T09:52:51.892Z,2.43
2024-02-13T09:55:20.048Z,2.37
2024-02-13T09:57:49.403Z,2.44
2024-02-13T10:00:18.992Z,2.36
2024-02-13T10:02:50.250Z,1.78
2024-02-13T10:05:18.541Z,2.90
2024-02-13T10:07:45.913Z,2.42
2024-02-13T10:10:13.536Z,2.08
2024-02-13T10:13:01.221Z,1.99
2024-02-13T10:15:43.609Z,3.20
2024-02-13T10:18:15.117Z,1.54
2024-02-13T10:20:43.513Z,1.74
2024-02-13T10:23:15.568Z,1.56
2024-02-13T10:25:45.948Z,1.21
2024-02-13T10:28:13.213Z,1.58
2024-02-13T10:30:40.460Z,1.43
2024-02-13T10:33:07.591Z,2.11
2024-02-13T10:35:35.079Z,2.08
2024-02-13T10:38:05.822Z,2.16
2024-02-13T10:40:36.988Z,1.76
2024-02-13T10:43:04.692Z,1.37
2024-02-13T10:45:33.364Z,1.32
2024-02-13T10:48:27.308Z,2.21
2024-02-13T10:50:55.347Z,1.80
2024-02-13T10:53:23.288Z,1.24
2024-02-13T10:55:56.533Z,1.66
2024-02-13T10:58:28.424Z,2.25
2024-02-13T11:01:00.033Z,1.80
2024-02-13T11:03:28.332Z,1.58
2024-02-13T11:05:55.324Z,1.44
2024-02-13T11:08:22.487Z,1.42
2024-02-13T11:10:51.003Z,1.46
2024-02-13T11:13:21.644Z,1.99
2024-02-13T11:15:48.751Z,2.28
2024-02-13T11:18:36.350Z,1.41
2024-02-13T11:21:07.774Z,1.45
2024-02-13T11:24:02.318Z,1.22
2024-02-13T11:26:36.294Z,1.36
2024-02-13T11:29:13.646Z,1.42
2024-02-13T11:31:41.207Z,1.87
2024-02-13T11:34:10.641Z,1.59
2024-02-13T11:36:43.571Z,1.80
2024-02-13T11:39:10.986Z,2.23
2024-02-13T11:41:38.113Z,1.92
2024-02-13T11:44:05.376Z,1.83
2024-02-13T11:46:32.521Z,2.25
2024-02-13T11:49:00.322Z,2.45
2024-02-13T11:51:27.304Z,1.80
2024-02-13T11:53:54.116Z,2.01
2024-02-13T11:56:21.822Z,2.18
2024-02-13T11:58:49.129Z,2.25
2024-02-13T12:01:19.647Z,2.08
2024-02-13T12:04:01.114Z,2.28
2024-02-13T12:06:29.012Z,2.07
2024-02-13T12:08:59.779Z,1.56
2024-02-13T12:11:30.857Z,1.34
2024-02-13T12:13:59.213Z,1.13
2024-02-13T12:16:26.140Z,1.58
2024-02-13T12:18:53.813Z,1.78
2024-02-13T12:21:20.816Z,1.46
2024-02-13T12:23:51.499Z,2.35
2024-02-13T12:26:18.604Z,1.92
2024-02-13T12:28:57.165Z,1.17
2024-02-13T12:31:25.016Z,1.51
2024-02-13T12:34:06.463Z,1.19
2024-02-13T12:36:34.731Z,1.22
2024-02-13T12:39:09.525Z,1.15
2024-02-13T12:41:37.241Z,1.37
2024-02-13T12:44:04.264Z,1.33
2024-02-13T12:46:35.968Z,1.19
2024-02-13T12:49:07.584Z,1.48
2024-02-13T12:51:35.023Z,1.11
2024-02-13T12:54:06.135Z,1.15
2024-02-13T12:56:34.598Z,1.11
2024-02-13T12:59:02.565Z,1.35
2024-02-13T13:01:29.625Z,1.21
2024-02-13T13:03:58.599Z,1.18
2024-02-13T13:06:33.060Z,1.22
2024-02-13T13:09:04.806Z,1.26
2024-02-13T13:11:34.078Z,1.21
2024-02-13T13:14:00.968Z,1.05
2024-02-13T13:16:32.115Z,1.23
2024-02-13T13:19:00.573Z,1.12
2024-02-13T13:21:28.236Z,1.16
2024-02-13T13:23:55.618Z,1.34
2024-02-13T13:26:24.586Z,2.04
2024-02-13T13:28:51.740Z,14.11
2024-02-13T13:31:20.282Z,8.55
2024-02-13T13:33:48.812Z,1.80
2024-02-13T13:36:17.752Z,1.38
2024-02-13T13:38:46.862Z,1.18
2024-02-13T13:41:14.706Z,1.32
2024-02-13T13:43:41.511Z,1.41
2024-02-13T13:46:09.306Z,1.30
2024-02-13T13:48:36.413Z,1.27
2024-02-13T13:51:04.450Z,1.78
2024-02-13T13:53:32.113Z,2.75
2024-02-13T13:55:59.281Z,1.81
2024-02-13T13:58:26.143Z,1.86
2024-02-13T14:00:54.548Z,2.51
2024-02-13T14:03:22.900Z,1.46
2024-02-13T14:05:50.766Z,1.42
2024-02-13T14:08:20.749Z,1.72
2024-02-13T14:10:47.856Z,1.08
2024-02-13T14:13:15.386Z,1.00
2024-02-13T14:15:42.468Z,1.02
2024-02-13T14:18:12.848Z,1.07
2024-02-13T14:20:40.622Z,1.15
2024-02-13T14:23:08.469Z,1.15
2024-02-13T14:25:38.813Z,1.13
2024-02-13T14:28:11.134Z,0.99
2024-02-13T14:31:08.293Z,1.03
2024-02-13T14:33:36.416Z,1.08
2024-02-13T14:36:04.972Z,1.04
2024-02-13T14:38:40.016Z,1.19
2024-02-13T14:41:32.477Z,1.38
2024-02-13T14:44:00.149Z,1.44
2024-02-13T14:46:29.303Z,1.03
2024-02-13T14:48:56.362Z,1.20
2024-02-13T14:51:23.541Z,1.40
2024-02-13T14:53:50.631Z,1.33
2024-02-13T14:56:17.548Z,1.36
2024-02-13T14:58:46.721Z,1.15
2024-02-13T15:01:13.642Z,1.19
2024-02-13T15:03:42.930Z,1.29
2024-02-13T15:06:09.838Z,1.19
2024-02-13T15:08:41.129Z,1.20
2024-02-13T15:11:10.025Z,1.16
2024-02-13T15:13:40.414Z,1.22
2024-02-13T15:16:08.586Z,1.38
2024-02-13T15:18:44.559Z,1.38
2024-02-13T15:21:12.853Z,1.34
2024-02-13T15:23:39.928Z,1.45
2024-02-13T15:26:08.213Z,1.54
2024-02-13T15:28:36.534Z,1.37
2024-02-13T15:31:03.369Z,1.51
2024-02-13T15:33:40.772Z,6.41
2024-02-13T15:36:28.473Z,3.65
2024-02-13T15:39:13.689Z,2.10
2024-02-13T15:41:59.151Z,1.91
2024-02-13T15:44:44.785Z,1.59
2024-02-13T15:47:11.559Z,1.24
2024-02-13T15:49:40.972Z,1.63
2024-02-13T15:52:07.864Z,1.80
2024-02-13T15:54:36.377Z,1.33
2024-02-13T15:57:03.817Z,1.11
2024-02-13T15:59:30.908Z,0.99
2024-02-13T16:01:59.016Z,1.57
2024-02-13T16:04:26.017Z,1.45
2024-02-13T16:06:54.666Z,1.26
2024-02-13T16:09:21.627Z,1.32
2024-02-13T16:11:49.205Z,1.27
2024-02-13T16:14:17.752Z,1.22
2024-02-13T16:16:44.624Z,1.25
2024-02-13T16:19:11.664Z,1.54
2024-02-13T16:21:38.496Z,1.98
2024-02-13T16:24:06.061Z,2.15
2024-02-13T16:26:33.332Z,2.21
2024-02-13T16:29:00.285Z,2.05
2024-02-13T16:31:27.411Z,1.68
2024-02-13T16:33:54.473Z,1.82
2024-02-13T16:36:22.617Z,1.76
2024-02-13T16:38:49.526Z,1.55
2024-02-13T16:41:17.055Z,1.49
2024-02-13T16:43:45.908Z,1.47
2024-02-13T16:46:18.389Z,1.78
2024-02-13T16:48:45.601Z,2.12
2024-02-13T16:51:13.705Z,1.66
2024-02-13T16:53:40.800Z,1.65
2024-02-13T16:56:07.704Z,1.77
2024-02-13T16:58:34.454Z,2.08
2024-02-13T17:01:02.695Z,2.06
2024-02-13T17:03:30.007Z,2.29
2024-02-13T17:05:57.940Z,2.05
2024-02-13T17:08:28.135Z,2.93
2024-02-13T17:10:55.279Z,4.63
2024-02-13T17:13:22.055Z,5.63
2024-02-13T17:15:48.817Z,4.18
2024-02-13T17:18:16.275Z,3.87
2024-02-13T17:20:43.946Z,4.08
2024-02-13T17:23:11.449Z,3.88
2024-02-13T17:25:38.428Z,3.48
2024-02-13T17:28:05.662Z,2.15
2024-02-13T17:30:32.753Z,1.91
2024-02-13T17:33:02.962Z,1.90
2024-02-13T17:35:31.970Z,2.35
2024-02-13T17:37:59.815Z,3.77
2024-02-13T17:40:26.749Z,3.61
2024-02-13T17:42:53.604Z,5.79
2024-02-13T17:45:20.498Z,3.83
2024-02-13T17:47:47.318Z,6.64
2024-02-13T17:50:14.151Z,5.78
2024-02-13T17:52:43.118Z,3.81
2024-02-13T17:55:18.724Z,2.29
2024-02-13T17:57:58.566Z,2.16
2024-02-13T18:00:28.356Z,9.47
2024-02-13T18:03:02.470Z,10.62
2024-02-13T18:05:33.341Z,11.16
2024-02-13T18:08:22.445Z,9.81
2024-02-13T18:10:54.423Z,3.24
2024-02-13T18:13:21.540Z,2.81
2024-02-13T18:15:51.968Z,2.28
2024-02-13T18:18:24.753Z,2.27
2024-02-13T18:20:53.249Z,2.03
2024-02-13T18:23:20.235Z,2.58
2024-02-13T18:25:49.847Z,3.75
2024-02-13T18:28:18.058Z,4.37
2024-02-13T18:30:46.302Z,6.00
2024-02-13T18:33:16.042Z,9.19
2024-02-13T18:35:46.562Z,8.08
2024-02-13T18:38:16.778Z,4.28
2024-02-13T18:40:46.247Z,3.21
2024-02-13T18:43:13.080Z,3.00
2024-02-13T18:45:40.541Z,4.01
2024-02-13T18:48:07.719Z,4.44
2024-02-13T18:55:00.036Z,4.00
2024-02-13T18:57:26.873Z,4.14
2024-02-13T18:59:54.668Z,4.98
2024-02-13T19:02:22.354Z,6.14
2024-02-13T19:04:52.249Z,6.59
2024-02-13T19:07:24.879Z,6.01
2024-02-13T19:09:54.433Z,6.31
2024-02-13T19:12:21.224Z,7.18
2024-02-13T19:14:51.057Z,6.41
2024-02-13T19:17:19.821Z,7.03
2024-02-13T19:19:48.433Z,9.74
2024-02-13T19:22:15.337Z,8.62
2024-02-13T19:24:42.484Z,8.42
2024-02-13T19:27:11.161Z,10.55
2024-02-13T19:29:39.109Z,12.07
2024-02-13T19:32:06.049Z,12.43
2024-02-13T19:34:35.843Z,9.93
2024-02-13T19:37:08.014Z,9.99
2024-02-13T19:39:36.795Z,9.70
2024-02-13T19:42:05.442Z,9.97
2024-02-13T19:44:32.266Z,9.00
2024-02-13T19:46:59.067Z,9.81
2024-02-13T19:49:45.902Z,12.15
2024-02-13T19:52:34.346Z,12.76
2024-02-13T19:55:24.219Z,14.38
2024-02-13T19:58:10.982Z,15.09
2024-02-13T20:01:00.937Z,14.91
2024-02-13T20:03:50.473Z,18.72
2024-02-13T20:06:38.874Z,20.27
2024-02-13T20:09:09.340Z,18.74
2024-02-13T20:11:37.315Z,20.60
2024-02-13T20:14:04.436Z,22.36
2024-02-13T20:16:33.539Z,24.69
2024-02-13T20:19:01.175Z,25.74
2024-02-13T20:21:32.973Z,26.35
2024-02-13T20:24:02.061Z,23.91
2024-02-13T20:26:29.061Z,20.55
2024-02-13T20:28:56.060Z,18.89
2024-02-13T20:31:25.992Z,17.00
2024-02-13T20:33:53.223Z,17.61
2024-02-13T20:36:22.649Z,23.17
2024-02-13T20:38:49.555Z,24.62
2024-02-13T20:41:20.261Z,23.63
2024-02-13T20:43:47.401Z,23.32
2024-02-13T20:46:18.166Z,23.19
2024-02-13T20:48:48.328Z,21.51
2024-02-13T20:51:16.221Z,20.13
2024-02-13T20:53:47.323Z,19.41
2024-02-13T20:56:18.586Z,19.50
2024-02-13T20:58:49.960Z,19.71
2024-02-13T21:01:17.227Z,18.27
2024-02-13T21:03:48.455Z,17.14
2024-02-13T21:06:20.306Z,16.57
2024-02-13T21:08:47.237Z,14.42
2024-02-13T21:11:15.027Z,13.89
2024-02-13T21:13:43.178Z,12.85
2024-02-13T21:16:16.695Z,12.48
2024-02-13T21:19:01.714Z,11.84
2024-02-13T21:21:53.752Z,12.22
2024-02-13T21:24:21.781Z,13.50
2024-02-13T21:26:50.080Z,12.67
2024-02-13T21:29:19.139Z,14.32
2024-02-13T21:31:48.892Z,15.56
2024-02-13T21:34:17.548Z,23.95
2024-02-13T21:36:45.422Z,24.38
2024-02-13T21:39:12.850Z,23.81
2024-02-13T21:41:39.962Z,26.09
2024-02-13T21:44:06.871Z,26.11
2024-02-13T21:46:36.552Z,23.94
2024-02-13T21:49:03.566Z,22.29
2024-02-13T21:51:31.606Z,22.51
2024-02-13T21:53:58.657Z,21.20
2024-02-13T21:56:26.972Z,17.37
2024-02-13T21:58:55.966Z,14.93
2024-02-13T22:01:27.666Z,13.74
2024-02-13T22:03:58.780Z,14.47
2024-02-13T22:06:27.059Z,15.25
2024-02-13T22:08:54.164Z,18.47
2024-02-13T22:11:21.365Z,16.57
2024-02-13T22:13:48.308Z,15.53
2024-02-13T22:16:15.108Z,15.19
2024-02-13T22:18:42.594Z,15.56
2024-02-13T22:21:09.766Z,14.59
2024-02-13T22:23:36.625Z,15.68
2024-02-13T22:26:03.572Z,15.30
2024-02-13T22:28:30.664Z,16.15
2024-02-13T22:30:57.519Z,15.17
2024-02-13T22:33:34.020Z,14.35
2024-02-13T22:36:01.417Z,15.09
2024-02-13T22:38:28.312Z,14.46
2024-02-13T22:40:55.452Z,14.27
2024-02-13T22:43:22.359Z,13.85
2024-02-13T22:45:49.517Z,12.95
2024-02-13T22:48:16.391Z,13.62
2024-02-13T22:50:43.279Z,14.33
2024-02-13T22:53:10.153Z,14.64
2024-02-13T22:55:37.273Z,15.27
2024-02-13T22:58:04.395Z,16.13
2024-02-13T23:00:50.605Z,16.62
2024-02-13T23:03:18.806Z,19.18
2024-02-13T23:05:48.135Z,24.68
2024-02-13T23:08:16.845Z,30.15
2024-02-13T23:10:44.113Z,25.94
2024-02-13T23:13:13.593Z,24.04
2024-02-13T23:15:41.461Z,23.67
2024-02-13T23:18:11.200Z,20.29
2024-02-13T23:20:38.480Z,19.60
2024-02-13T23:23:05.602Z,18.26
2024-02-13T23:25:32.378Z,17.47
2024-02-13T23:28:00.974Z,16.26
2024-02-13T23:30:28.509Z,15.49
2024-02-13T23:32:56.114Z,15.45
2024-02-13T23:35:23.229Z,15.51
2024-02-13T23:37:50.060Z,15.45
2024-02-13T23:40:18.436Z,15.27
2024-02-13T23:42:49.267Z,15.21
2024-02-13T23:45:17.843Z,14.82
2024-02-13T23:47:44.937Z,14.83
2024-02-13T23:50:12.142Z,14.51
2024-02-13T23:52:39.072Z,13.65
2024-02-13T23:55:12.280Z,13.36
2024-02-13T23:57:43.105Z,12.33
